createdAt,value
2022-08-01T00:00:09.176Z,4.20
2022-08-01T00:01:13.966Z,4.38
2022-08-01T00:02:15.499Z,4.70
2022-08-01T00:03:17.062Z,4.30
2022-08-01T00:04:18.519Z,4.60
2022-08-01T00:05:19.965Z,4.45
2022-08-01T00:06:21.421Z,4.13
2022-08-01T00:07:22.918Z,4.43
2022-08-01T00:08:24.414Z,4.50
2022-08-01T00:09:25.940Z,4.80
2022-08-01T00:10:27.911Z,4.60
2022-08-01T00:11:29.405Z,4.50
2022-08-01T00:12:31.065Z,4.35
2022-08-01T00:13:32.515Z,4.22
2022-08-01T00:14:33.999Z,4.35
2022-08-01T00:15:35.584Z,4.55
2022-08-01T00:16:37.644Z,4.95
2022-08-01T00:17:40.022Z,4.78
2022-08-01T00:18:41.479Z,4.88
2022-08-01T00:19:42.981Z,4.85
2022-08-01T00:20:44.770Z,4.50
2022-08-01T00:21:52.231Z,4.50
2022-08-01T00:23:04.441Z,4.50
2022-08-01T00:24:06.023Z,4.65
2022-08-01T00:25:08.105Z,4.32
2022-08-01T00:26:09.994Z,4.50
2022-08-01T00:27:11.446Z,4.63
2022-08-01T00:28:14.879Z,4.55
2022-08-01T00:30:12.644Z,4.60
2022-08-01T00:30:38.926Z,4.50
2022-08-01T00:31:40.505Z,4.65
2022-08-01T00:32:43.145Z,4.68
2022-08-01T00:33:44.644Z,4.75
2022-08-01T00:34:46.915Z,4.88
2022-08-01T00:35:48.837Z,5.40
2022-08-01T00:36:50.327Z,4.72
2022-08-01T00:37:52.601Z,4.78
2022-08-01T00:38:54.177Z,4.93
2022-08-01T00:39:55.643Z,5.00
2022-08-01T00:40:57.759Z,5.30
2022-08-01T00:42:00.125Z,5.05
2022-08-01T00:43:01.729Z,5.47
2022-08-01T00:44:05.717Z,5.05
2022-08-01T00:45:07.843Z,5.10
2022-08-01T00:46:09.302Z,4.80
2022-08-01T00:47:10.795Z,4.70
2022-08-01T00:48:12.777Z,4.85
2022-08-01T00:49:14.326Z,5.00
2022-08-01T00:50:16.398Z,4.70
2022-08-01T00:51:18.362Z,4.68
2022-08-01T00:52:20.135Z,4.70
2022-08-01T00:53:21.612Z,5.00
2022-08-01T00:54:25.535Z,4.63
2022-08-01T00:55:32.300Z,5.40
2022-08-01T00:56:33.817Z,4.80
2022-08-01T00:58:03.576Z,4.95
2022-08-01T00:58:57.552Z,4.80
2022-08-01T00:59:59.617Z,5.40
2022-08-01T01:01:01.650Z,5.25
2022-08-01T01:02:05.651Z,5.00
2022-08-01T01:03:16.590Z,5.20
2022-08-01T01:04:18.560Z,4.78
2022-08-01T01:05:20.601Z,4.80
2022-08-01T01:06:40.936Z,4.88
2022-08-01T01:07:57.681Z,5.10
2022-08-01T01:09:12.200Z,5.10
2022-08-01T01:10:22.440Z,5.38
2022-08-01T01:11:30.494Z,5.45
2022-08-01T01:12:53.189Z,5.10
2022-08-01T01:14:00.306Z,5.10
2022-08-01T01:15:08.030Z,5.13
2022-08-01T01:16:15.670Z,5.10
2022-08-01T01:17:40.666Z,5.30
2022-08-01T01:18:50.266Z,5.00
2022-08-01T01:19:57.141Z,4.68
2022-08-01T01:21:18.107Z,5.20
2022-08-01T01:22:50.214Z,5.25
2022-08-01T01:24:02.377Z,5.53
2022-08-01T01:25:38.376Z,5.53
2022-08-01T01:26:57.671Z,5.70
2022-08-01T01:28:36.187Z,5.38
2022-08-01T01:29:59.254Z,5.75
2022-08-01T01:31:04.974Z,5.65
2022-08-01T01:32:10.772Z,5.80
2022-08-01T01:33:15.092Z,5.22
2022-08-01T01:34:19.513Z,5.68
2022-08-01T01:35:25.140Z,5.05
2022-08-01T01:36:30.220Z,5.65
2022-08-01T01:37:35.132Z,5.72
2022-08-01T01:38:45.325Z,5.35
2022-08-01T01:39:54.332Z,5.35
2022-08-01T01:40:57.705Z,5.50
2022-08-01T01:42:00.670Z,5.57
2022-08-01T01:43:02.108Z,4.85
2022-08-01T01:44:06.696Z,4.90
2022-08-01T01:45:09.562Z,5.40
2022-08-01T01:47:17.193Z,5.20
2022-08-01T01:48:20.631Z,5.32
2022-08-01T01:49:26.650Z,5.63
2022-08-01T01:50:29.651Z,5.43
2022-08-01T01:51:31.652Z,5.35
2022-08-01T01:52:33.885Z,5.25
2022-08-01T01:53:37.236Z,5.57
2022-08-01T01:54:43.336Z,4.65
2022-08-01T01:55:49.703Z,4.95
2022-08-01T01:56:52.908Z,5.15
2022-08-01T01:59:00.884Z,5.30
2022-08-01T02:00:03.158Z,5.40
2022-08-01T02:01:05.283Z,4.85
2022-08-01T02:02:17.966Z,5.47
2022-08-01T02:03:21.708Z,5.50
2022-08-01T02:04:25.579Z,5.18
2022-08-01T02:05:29.051Z,5.00
2022-08-01T02:06:32.899Z,5.03
2022-08-01T02:07:35.972Z,4.97
2022-08-01T02:08:39.438Z,5.43
2022-08-01T02:09:44.226Z,5.22
2022-08-01T02:11:07.333Z,5.05
2022-08-01T02:12:13.083Z,4.80
2022-08-01T02:13:15.301Z,5.50
2022-08-01T02:14:19.095Z,5.20
2022-08-01T02:15:21.188Z,5.25
2022-08-01T02:16:26.137Z,5.35
2022-08-01T02:17:28.695Z,5.53
2022-08-01T02:18:30.799Z,5.22
2022-08-01T02:19:34.552Z,5.32
2022-08-01T02:20:40.260Z,5.30
2022-08-01T02:21:47.191Z,5.40
2022-08-01T02:22:54.358Z,5.68
2022-08-01T02:24:05.720Z,5.55
2022-08-01T02:26:09.726Z,5.00
2022-08-01T02:27:17.912Z,4.95
2022-08-01T02:28:29.166Z,5.50
2022-08-01T02:30:06.406Z,5.22
2022-08-01T02:31:13.184Z,5.30
2022-08-01T02:32:24.583Z,5.40
2022-08-01T02:33:34.815Z,5.20
2022-08-01T02:34:36.788Z,5.20
2022-08-01T02:36:32.204Z,5.03
2022-08-01T02:37:04.575Z,5.13
2022-08-01T02:39:14.612Z,5.38
2022-08-01T02:40:18.649Z,5.30
2022-08-01T02:41:23.323Z,5.18
2022-08-01T02:42:30.850Z,5.35
2022-08-01T02:43:35.397Z,5.38
2022-08-01T02:44:42.395Z,5.00
2022-08-01T02:45:48.551Z,4.95
2022-08-01T02:46:57.195Z,5.28
2022-08-01T02:48:14.035Z,5.57
2022-08-01T02:49:17.990Z,5.72
2022-08-01T02:50:21.196Z,5.50
2022-08-01T02:51:25.804Z,5.30
2022-08-01T02:52:30.073Z,4.93
2022-08-01T02:53:43.768Z,5.20
2022-08-01T02:54:48.770Z,5.30
2022-08-01T02:55:52.142Z,5.30
2022-08-01T02:56:55.779Z,5.80
2022-08-01T02:58:01.962Z,5.32
2022-08-01T02:59:14.347Z,5.60
2022-08-01T03:00:18.117Z,5.22
2022-08-01T03:01:22.165Z,5.15
2022-08-01T03:02:24.770Z,5.35
2022-08-01T03:03:26.926Z,5.60
2022-08-01T03:04:28.937Z,5.20
2022-08-01T03:05:33.398Z,5.07
2022-08-01T03:06:37.078Z,5.20
2022-08-01T03:07:40.691Z,5.28
2022-08-01T03:08:45.165Z,5.40
2022-08-01T03:09:47.723Z,5.40
2022-08-01T03:10:51.869Z,5.47
2022-08-01T03:11:53.699Z,5.65
2022-08-01T03:12:56.644Z,5.38
2022-08-01T03:14:02.952Z,5.03
2022-08-01T03:15:06.830Z,5.22
2022-08-01T03:16:09.211Z,5.22
2022-08-01T03:17:12.438Z,5.38
2022-08-01T03:18:16.919Z,5.20
2022-08-01T03:19:20.686Z,5.32
2022-08-01T03:20:26.146Z,5.35
2022-08-01T03:21:29.779Z,5.30
2022-08-01T03:22:33.989Z,5.40
2022-08-01T03:23:38.594Z,5.75
2022-08-01T03:24:42.954Z,5.50
2022-08-01T03:25:45.983Z,5.38
2022-08-01T03:26:49.915Z,5.40
2022-08-01T03:27:56.452Z,5.03
2022-08-01T03:29:07.366Z,5.50
2022-08-01T03:30:09.747Z,5.00
2022-08-01T03:31:13.550Z,5.38
2022-08-01T03:32:17.903Z,5.18
2022-08-01T03:33:19.483Z,5.63
2022-08-01T03:34:24.054Z,5.50
2022-08-01T03:35:34.679Z,5.47
2022-08-01T03:36:43.809Z,5.32
2022-08-01T03:38:14.707Z,5.35
2022-08-01T03:39:12.801Z,5.35
2022-08-01T03:40:24.576Z,5.70
2022-08-01T03:41:28.538Z,5.15
2022-08-01T03:42:37.609Z,4.90
2022-08-01T03:43:45.501Z,5.00
2022-08-01T03:44:55.146Z,5.32
2022-08-01T03:46:02.209Z,5.32
2022-08-01T03:47:08.402Z,5.45
2022-08-01T03:48:15.340Z,5.55
2022-08-01T03:49:24.477Z,5.75
2022-08-01T03:50:27.639Z,5.53
2022-08-01T03:51:31.790Z,5.75
2022-08-01T03:52:35.156Z,5.38
2022-08-01T03:53:41.102Z,5.88
2022-08-01T03:54:50.643Z,5.60
2022-08-01T03:55:54.210Z,5.43
2022-08-01T03:56:56.072Z,5.82
2022-08-01T03:57:58.764Z,5.60
2022-08-01T03:59:02.663Z,5.95
2022-08-01T04:00:10.204Z,5.50
2022-08-01T04:01:15.962Z,5.78
2022-08-01T04:02:22.758Z,5.80
2022-08-01T04:03:25.641Z,5.78
2022-08-01T04:04:27.442Z,5.63
2022-08-01T04:05:28.920Z,5.85
2022-08-01T04:06:30.552Z,5.43
2022-08-01T04:07:33.962Z,5.80
2022-08-01T04:08:39.381Z,6.15
2022-08-01T04:09:41.280Z,5.43
2022-08-01T04:10:44.428Z,5.80
2022-08-01T04:11:46.533Z,5.88
2022-08-01T04:12:48.489Z,5.72
2022-08-01T04:13:50.032Z,5.75
2022-08-01T04:14:52.207Z,5.32
2022-08-01T04:15:54.303Z,5.93
2022-08-01T04:16:56.551Z,5.68
2022-08-01T04:17:58.469Z,5.70
2022-08-01T04:19:00.532Z,5.65
2022-08-01T04:20:02.099Z,5.53
2022-08-01T04:21:03.809Z,5.88
2022-08-01T04:22:06.739Z,5.30
2022-08-01T04:23:10.537Z,5.65
2022-08-01T04:24:16.098Z,5.20
2022-08-01T04:25:30.343Z,5.45
2022-08-01T04:26:34.011Z,6.07
2022-08-01T04:27:49.797Z,5.40
2022-08-01T04:28:55.748Z,5.40
2022-08-01T04:29:59.884Z,5.50
2022-08-01T04:31:02.389Z,5.20
2022-08-01T04:32:06.376Z,5.28
2022-08-01T04:33:10.989Z,5.35
2022-08-01T04:34:15.263Z,5.85
2022-08-01T04:35:23.190Z,5.30
2022-08-01T04:36:43.828Z,5.47
2022-08-01T04:37:46.829Z,5.22
2022-08-01T04:38:53.409Z,5.47
2022-08-01T04:39:55.937Z,5.28
2022-08-01T04:40:58.816Z,5.47
2022-08-01T04:42:06.491Z,5.53
2022-08-01T04:43:08.752Z,5.47
2022-08-01T04:44:10.339Z,5.30
2022-08-01T04:45:11.958Z,5.00
2022-08-01T04:46:14.952Z,5.28
2022-08-01T04:47:17.063Z,4.97
2022-08-01T04:48:22.721Z,5.07
2022-08-01T04:49:25.418Z,5.30
2022-08-01T04:50:28.292Z,5.20
2022-08-01T04:52:35.956Z,4.80
2022-08-01T04:53:37.613Z,5.13
2022-08-01T04:54:39.124Z,5.43
2022-08-01T04:55:41.196Z,4.82
2022-08-01T04:56:43.135Z,5.35
2022-08-01T04:57:47.446Z,4.68
2022-08-01T04:58:49.459Z,5.00
2022-08-01T04:59:58.098Z,5.00
2022-08-01T05:00:59.595Z,5.15
2022-08-01T05:02:01.123Z,5.57
2022-08-01T05:03:02.599Z,5.50
2022-08-01T05:04:04.374Z,5.35
2022-08-01T05:05:09.183Z,5.57
2022-08-01T05:06:10.755Z,5.55
2022-08-01T05:07:13.969Z,5.80
2022-08-01T05:08:15.462Z,5.43
2022-08-01T05:09:17.233Z,5.53
2022-08-01T05:10:18.984Z,5.40
2022-08-01T05:11:22.562Z,5.32
2022-08-01T05:12:24.183Z,5.55
2022-08-01T05:13:26.701Z,4.95
2022-08-01T05:14:29.823Z,4.90
2022-08-01T05:15:32.351Z,5.40
2022-08-01T05:16:33.823Z,5.15
2022-08-01T05:17:35.408Z,4.95
2022-08-01T05:18:36.953Z,4.32
2022-08-01T05:19:40.032Z,4.95
2022-08-01T05:20:42.364Z,4.85
2022-08-01T05:21:44.387Z,4.45
2022-08-01T05:22:45.951Z,4.82
2022-08-01T05:23:50.510Z,5.07
2022-08-01T05:24:52.456Z,4.90
2022-08-01T05:25:56.892Z,4.78
2022-08-01T05:27:00.702Z,4.43
2022-08-01T05:28:02.623Z,4.32
2022-08-01T05:29:05.013Z,4.70
2022-08-01T05:30:08.905Z,4.57
2022-08-01T05:31:10.810Z,4.70
2022-08-01T05:32:12.436Z,4.50
2022-08-01T05:33:14.019Z,4.82
2022-08-01T05:34:15.735Z,4.47
2022-08-01T05:35:17.208Z,4.95
2022-08-01T05:36:19.131Z,4.45
2022-08-01T05:37:20.721Z,4.30
2022-08-01T05:38:22.198Z,4.90
2022-08-01T05:39:24.443Z,4.53
2022-08-01T05:40:25.935Z,4.63
2022-08-01T05:41:27.573Z,4.10
2022-08-01T05:42:29.080Z,4.60
2022-08-01T05:43:30.980Z,4.72
2022-08-01T05:44:32.934Z,4.75
2022-08-01T05:45:34.382Z,4.32
2022-08-01T05:46:36.816Z,4.65
2022-08-01T05:47:38.246Z,4.15
2022-08-01T05:48:44.673Z,4.50
2022-08-01T05:49:47.030Z,3.90
2022-08-01T05:50:48.845Z,3.85
2022-08-01T05:51:50.882Z,4.00
2022-08-01T05:52:52.303Z,3.80
2022-08-01T05:53:54.521Z,4.18
2022-08-01T05:54:55.965Z,3.78
2022-08-01T05:55:57.948Z,3.85
2022-08-01T05:57:02.565Z,3.65
2022-08-01T05:58:04.302Z,4.30
2022-08-01T05:59:06.281Z,3.83
2022-08-01T06:00:08.544Z,3.60
2022-08-01T06:01:10.054Z,3.50
2022-08-01T06:02:11.700Z,3.65
2022-08-01T06:03:13.376Z,3.45
2022-08-01T06:04:15.270Z,3.88
2022-08-01T06:05:19.999Z,3.50
2022-08-01T06:06:25.494Z,3.35
2022-08-01T06:07:27.148Z,3.20
2022-08-01T06:08:28.707Z,3.40
2022-08-01T06:09:31.909Z,3.17
2022-08-01T06:10:33.617Z,3.10
2022-08-01T06:11:35.214Z,2.95
2022-08-01T06:12:37.674Z,3.45
2022-08-01T06:13:45.315Z,3.20
2022-08-01T06:14:50.196Z,3.10
2022-08-01T06:15:52.630Z,3.00
2022-08-01T06:16:54.186Z,3.03
2022-08-01T06:17:56.191Z,3.20
2022-08-01T06:18:57.699Z,3.22
2022-08-01T06:19:59.678Z,3.47
2022-08-01T06:21:01.160Z,3.50
2022-08-01T06:22:03.050Z,3.20
2022-08-01T06:23:05.856Z,3.03
2022-08-01T06:24:26.583Z,2.88
2022-08-01T06:25:28.085Z,3.20
2022-08-01T06:26:29.543Z,3.10
2022-08-01T06:27:31.092Z,2.70
2022-08-01T06:28:32.583Z,3.03
2022-08-01T06:29:34.486Z,3.00
2022-08-01T06:30:35.958Z,2.67
2022-08-01T06:31:37.877Z,2.95
2022-08-01T06:32:39.365Z,3.00
2022-08-01T06:33:41.000Z,2.80
2022-08-01T06:34:42.921Z,2.30
2022-08-01T06:35:45.077Z,2.40
2022-08-01T06:36:46.569Z,2.30
2022-08-01T06:37:48.158Z,2.50
2022-08-01T06:38:50.194Z,2.28
2022-08-01T06:39:51.684Z,2.45
2022-08-01T06:40:53.299Z,2.20
2022-08-01T06:41:54.784Z,2.65
2022-08-01T06:42:56.276Z,2.40
2022-08-01T06:43:57.852Z,2.38
2022-08-01T06:44:59.332Z,2.40
2022-08-01T06:46:00.859Z,2.35
2022-08-01T06:47:02.396Z,2.42
2022-08-01T06:48:04.689Z,2.40
2022-08-01T06:49:06.786Z,2.40
2022-08-01T06:50:11.233Z,2.30
2022-08-01T06:51:16.492Z,2.47
2022-08-01T06:52:18.031Z,2.30
2022-08-01T06:53:19.472Z,2.38
2022-08-01T06:54:21.009Z,2.60
2022-08-01T06:55:22.536Z,2.35
2022-08-01T06:56:24.158Z,2.50
2022-08-01T06:57:25.670Z,2.63
2022-08-01T06:58:31.661Z,2.10
2022-08-01T06:59:33.570Z,2.05
2022-08-01T07:00:35.111Z,2.22
2022-08-01T07:01:37.391Z,2.40
2022-08-01T07:02:39.325Z,2.53
2022-08-01T07:03:52.451Z,2.38
2022-08-01T07:04:56.241Z,2.20
2022-08-01T07:05:57.694Z,2.13
2022-08-01T07:06:59.625Z,2.00
2022-08-01T07:08:01.165Z,2.33
2022-08-01T07:09:08.487Z,2.10
2022-08-01T07:10:12.592Z,2.20
2022-08-01T07:11:14.032Z,2.30
2022-08-01T07:12:15.485Z,2.30
2022-08-01T07:13:21.619Z,2.33
2022-08-01T07:14:24.556Z,2.33
2022-08-01T07:15:27.650Z,2.38
2022-08-01T07:16:29.297Z,2.15
2022-08-01T07:17:30.819Z,2.17
2022-08-01T07:18:32.521Z,2.20
2022-08-01T07:19:34.481Z,2.13
2022-08-01T07:20:51.820Z,2.30
2022-08-01T07:21:54.583Z,2.20
2022-08-01T07:22:56.710Z,2.30
2022-08-01T07:23:58.337Z,2.30
2022-08-01T07:25:00.653Z,2.40
2022-08-01T07:26:03.568Z,2.33
2022-08-01T07:27:11.538Z,2.42
2022-08-01T07:28:25.872Z,2.40
2022-08-01T07:29:28.142Z,2.15
2022-08-01T07:30:29.628Z,2.30
2022-08-01T07:31:32.507Z,2.15
2022-08-01T07:32:35.940Z,2.00
2022-08-01T07:33:47.687Z,2.10
2022-08-01T07:34:50.719Z,2.33
2022-08-01T07:35:52.552Z,2.33
2022-08-01T07:36:54.246Z,2.30
2022-08-01T07:37:55.808Z,2.35
2022-08-01T07:38:57.895Z,2.25
2022-08-01T07:40:00.106Z,2.35
2022-08-01T07:41:02.097Z,2.17
2022-08-01T07:42:13.414Z,2.20
2022-08-01T07:43:15.110Z,2.40
2022-08-01T07:44:17.519Z,2.30
2022-08-01T07:45:19.059Z,2.38
2022-08-01T07:46:20.647Z,2.33
2022-08-01T07:47:26.190Z,2.22
2022-08-01T07:48:28.062Z,2.35
2022-08-01T07:49:29.715Z,2.38
2022-08-01T07:50:34.170Z,2.40
2022-08-01T07:51:35.828Z,2.65
2022-08-01T07:52:37.434Z,2.40
2022-08-01T07:53:38.930Z,2.45
2022-08-01T07:54:40.398Z,2.38
2022-08-01T07:55:42.091Z,2.10
2022-08-01T07:56:47.638Z,2.60
2022-08-01T07:57:49.219Z,2.40
2022-08-01T07:58:51.309Z,2.30
2022-08-01T07:59:52.849Z,2.25
2022-08-01T08:00:54.310Z,2.47
2022-08-01T08:01:55.946Z,2.10
2022-08-01T08:02:59.888Z,2.10
2022-08-01T08:04:01.336Z,2.45
2022-08-01T08:05:04.767Z,2.20
2022-08-01T08:06:07.126Z,2.40
2022-08-01T08:07:09.070Z,2.20
2022-08-01T08:09:16.201Z,2.40
2022-08-01T08:10:17.777Z,2.20
2022-08-01T08:11:19.739Z,2.53
2022-08-01T08:12:28.818Z,2.20
2022-08-01T08:13:31.601Z,2.35
2022-08-01T08:14:33.406Z,2.17
2022-08-01T08:15:34.876Z,2.50
2022-08-01T08:16:36.360Z,2.38
2022-08-01T08:17:37.867Z,2.30
2022-08-01T08:18:39.391Z,2.40
2022-08-01T08:19:42.382Z,2.20
2022-08-01T08:20:44.505Z,2.30
2022-08-01T08:21:45.988Z,2.28
2022-08-01T08:22:47.919Z,2.45
2022-08-01T08:24:08.132Z,2.22
2022-08-01T08:25:11.750Z,2.20
2022-08-01T08:26:13.859Z,2.35
2022-08-01T08:27:15.939Z,2.30
2022-08-01T08:28:17.501Z,2.30
2022-08-01T08:29:19.026Z,2.22
2022-08-01T08:30:20.601Z,2.20
2022-08-01T08:31:24.965Z,2.50
2022-08-01T08:32:27.453Z,2.20
2022-08-01T08:33:28.923Z,2.50
2022-08-01T08:34:30.951Z,1.95
2022-08-01T08:35:53.289Z,2.30
2022-08-01T08:36:57.020Z,2.00
2022-08-01T08:37:58.496Z,2.10
2022-08-01T08:39:02.311Z,2.30
2022-08-01T08:40:06.073Z,2.00
2022-08-01T08:41:08.409Z,2.10
2022-08-01T08:42:11.704Z,2.30
2022-08-01T08:43:13.220Z,1.98
2022-08-01T08:44:15.312Z,2.08
2022-08-01T08:46:19.888Z,1.80
2022-08-01T08:47:33.377Z,2.20
2022-08-01T08:48:35.741Z,1.70
2022-08-01T08:49:37.649Z,2.05
2022-08-01T08:50:47.004Z,1.70
2022-08-01T08:51:51.413Z,1.98
2022-08-01T08:52:55.628Z,2.00
2022-08-01T08:53:58.103Z,1.75
2022-08-01T08:55:00.246Z,2.00
2022-08-01T08:56:02.780Z,1.70
2022-08-01T08:57:06.102Z,1.73
2022-08-01T08:58:07.711Z,1.60
2022-08-01T08:59:09.760Z,1.80
2022-08-01T09:00:13.037Z,1.80
2022-08-01T09:01:14.784Z,1.63
2022-08-01T09:02:16.407Z,1.40
2022-08-01T09:03:18.226Z,1.73
2022-08-01T09:04:23.531Z,1.60
2022-08-01T09:05:38.566Z,1.50
2022-08-01T09:06:41.412Z,1.40
2022-08-01T09:07:42.884Z,1.50
2022-08-01T09:08:44.395Z,1.40
2022-08-01T09:09:45.893Z,1.48
2022-08-01T09:10:49.719Z,1.75
2022-08-01T09:11:56.967Z,1.60
2022-08-01T09:13:11.911Z,1.55
2022-08-01T09:14:23.287Z,1.60
2022-08-01T09:15:39.520Z,1.63
2022-08-01T09:16:48.505Z,1.70
2022-08-01T09:17:50.915Z,1.50
2022-08-01T09:18:53.521Z,1.40
2022-08-01T09:19:57.535Z,1.45
2022-08-01T09:21:15.310Z,1.40
2022-08-01T09:22:23.863Z,1.50
2022-08-01T09:23:36.118Z,1.30
2022-08-01T09:24:38.179Z,1.30
2022-08-01T09:25:56.727Z,1.45
2022-08-01T09:27:03.366Z,1.48
2022-08-01T09:28:07.099Z,1.30
2022-08-01T09:29:28.962Z,1.38
2022-08-01T09:30:40.797Z,1.33
2022-08-01T09:31:47.353Z,1.50
2022-08-01T09:33:11.527Z,1.40
2022-08-01T09:34:31.411Z,1.52
2022-08-01T09:35:43.520Z,1.35
2022-08-01T09:36:54.255Z,1.30
2022-08-01T09:38:35.101Z,1.42
2022-08-01T09:39:38.672Z,1.40
2022-08-01T09:40:59.006Z,1.40
2022-08-01T09:42:02.525Z,1.60
2022-08-01T09:43:14.955Z,1.33
2022-08-01T09:44:18.731Z,1.30
2022-08-01T09:45:41.311Z,1.30
2022-08-01T09:46:56.397Z,1.27
2022-08-01T09:47:57.958Z,1.40
2022-08-01T09:49:02.015Z,1.52
2022-08-01T09:50:11.269Z,1.40
2022-08-01T09:51:13.977Z,1.60
2022-08-01T09:52:35.768Z,1.45
2022-08-01T09:53:51.382Z,1.48
2022-08-01T09:55:00.443Z,1.55
2022-08-01T09:56:12.593Z,1.30
2022-08-01T09:57:19.821Z,1.33
2022-08-01T09:58:21.982Z,1.40
2022-08-01T09:59:57.284Z,1.48
2022-08-01T10:01:04.974Z,1.48
2022-08-01T10:02:09.345Z,1.52
2022-08-01T10:03:28.083Z,1.40
2022-08-01T10:04:29.824Z,1.50
2022-08-01T10:05:37.234Z,1.50
2022-08-01T10:06:41.004Z,1.45
2022-08-01T10:08:01.432Z,1.58
2022-08-01T10:09:04.852Z,1.50
2022-08-01T10:10:15.193Z,1.60
2022-08-01T10:11:17.580Z,1.50
2022-08-01T10:12:21.007Z,1.58
2022-08-01T10:13:23.075Z,1.48
2022-08-01T10:14:27.528Z,1.52
2022-08-01T10:15:36.788Z,1.50
2022-08-01T10:16:40.573Z,1.45
2022-08-01T10:18:55.144Z,1.48
2022-08-01T10:20:00.919Z,1.50
2022-08-01T10:21:04.154Z,1.50
2022-08-01T10:22:17.555Z,1.40
2022-08-01T10:23:23.657Z,1.38
2022-08-01T10:24:43.725Z,1.33
2022-08-01T10:25:46.967Z,1.63
2022-08-01T10:26:52.421Z,1.42
2022-08-01T10:27:57.678Z,1.35
2022-08-01T10:29:00.754Z,1.50
2022-08-01T10:30:19.138Z,1.40
2022-08-01T10:31:30.571Z,1.65
2022-08-01T10:32:33.863Z,1.38
2022-08-01T10:33:52.042Z,1.60
2022-08-01T10:34:56.360Z,1.70
2022-08-01T10:35:59.299Z,1.52
2022-08-01T10:37:05.766Z,1.70
2022-08-01T10:38:13.955Z,1.50
2022-08-01T10:39:19.961Z,1.50
2022-08-01T10:40:30.967Z,1.70
2022-08-01T10:41:34.435Z,1.50
2022-08-01T10:42:36.603Z,1.45
2022-08-01T10:43:38.089Z,1.70
2022-08-01T10:44:41.697Z,1.55
2022-08-01T10:45:46.229Z,1.50
2022-08-01T10:46:51.781Z,1.60
2022-08-01T10:48:05.335Z,1.50
2022-08-01T10:49:16.885Z,1.70
2022-08-01T10:50:27.901Z,1.52
2022-08-01T10:51:52.157Z,1.42
2022-08-01T10:53:16.144Z,1.58
2022-08-01T10:55:20.188Z,1.70
2022-08-01T10:56:26.966Z,1.45
2022-08-01T10:57:48.889Z,1.50
2022-08-01T10:59:05.889Z,1.55
2022-08-01T11:00:09.162Z,1.60
2022-08-01T11:01:16.321Z,1.58
2022-08-01T11:02:32.218Z,1.60
2022-08-01T11:03:56.246Z,1.50
2022-08-01T11:05:10.728Z,1.50
2022-08-01T11:06:24.598Z,1.52
2022-08-01T11:07:49.544Z,1.60
2022-08-01T11:08:53.678Z,1.83
2022-08-01T11:10:15.109Z,1.60
2022-08-01T11:12:23.527Z,1.67
2022-08-01T11:13:58.977Z,1.60
2022-08-01T11:15:03.115Z,1.70
2022-08-01T11:16:36.550Z,2.13
2022-08-01T11:17:42.243Z,1.70
2022-08-01T11:18:51.201Z,1.52
2022-08-01T11:20:13.008Z,1.70
2022-08-01T11:21:59.150Z,1.80
2022-08-01T11:22:58.596Z,1.80
2022-08-01T11:24:00.083Z,2.03
2022-08-01T11:25:02.624Z,2.00
2022-08-01T11:26:10.470Z,1.88
2022-08-01T11:27:28.848Z,1.60
2022-08-01T11:28:36.583Z,1.60
2022-08-01T11:29:38.606Z,1.60
2022-08-01T11:30:44.624Z,1.70
2022-08-01T11:31:46.262Z,1.80
2022-08-01T11:33:12.538Z,1.80
2022-08-01T11:34:15.871Z,1.60
2022-08-01T11:35:18.728Z,1.80
2022-08-01T11:36:55.909Z,1.60
2022-08-01T11:37:45.412Z,1.88
2022-08-01T11:38:58.799Z,1.70
2022-08-01T11:40:20.432Z,1.80
2022-08-01T11:41:37.376Z,1.60
2022-08-01T11:42:40.693Z,1.65
2022-08-01T11:44:02.154Z,1.60
2022-08-01T11:45:03.975Z,1.70
2022-08-01T11:46:05.827Z,1.70
2022-08-01T11:47:13.651Z,1.58
2022-08-01T11:48:27.534Z,1.50
2022-08-01T11:49:38.467Z,1.70
2022-08-01T11:50:41.961Z,1.50
2022-08-01T11:52:46.557Z,1.55
2022-08-01T11:53:48.112Z,1.58
2022-08-01T11:54:52.581Z,1.40
2022-08-01T11:55:55.328Z,1.60
2022-08-01T11:57:00.158Z,1.45
2022-08-01T11:58:08.939Z,1.92
2022-08-01T11:59:24.460Z,2.20
2022-08-01T12:00:26.319Z,2.00
2022-08-01T12:01:29.760Z,2.08
2022-08-01T12:02:34.927Z,2.03
2022-08-01T12:03:36.994Z,2.08
2022-08-01T12:04:48.702Z,2.20
2022-08-01T12:05:50.487Z,2.30
2022-08-01T12:06:51.951Z,2.30
2022-08-01T12:07:57.132Z,2.30
2022-08-01T12:09:16.442Z,2.10
2022-08-01T12:10:20.348Z,2.20
2022-08-01T12:11:21.828Z,2.10
2022-08-01T12:12:23.348Z,2.40
2022-08-01T12:13:24.913Z,2.25
2022-08-01T12:14:26.598Z,2.00
2022-08-01T12:15:34.580Z,2.00
2022-08-01T12:16:36.119Z,2.00
2022-08-01T12:17:47.201Z,2.10
2022-08-01T12:19:00.290Z,2.00
2022-08-01T12:20:03.555Z,2.25
2022-08-01T12:21:05.951Z,2.10
2022-08-01T12:22:15.160Z,2.20
2022-08-01T12:23:17.419Z,2.10
2022-08-01T12:24:23.128Z,2.20
2022-08-01T12:25:25.417Z,2.30
2022-08-01T12:26:42.713Z,2.28
2022-08-01T12:27:46.925Z,2.00
2022-08-01T12:28:48.384Z,2.38
2022-08-01T12:29:50.083Z,1.88
2022-08-01T12:30:51.901Z,1.75
2022-08-01T12:31:53.411Z,1.80
2022-08-01T12:32:55.753Z,2.15
2022-08-01T12:33:57.176Z,2.00
2022-08-01T12:35:17.901Z,2.10
2022-08-01T12:36:29.943Z,2.20
2022-08-01T12:37:31.466Z,2.10
2022-08-01T12:38:33.950Z,2.00
2022-08-01T12:39:36.127Z,2.00
2022-08-01T12:40:45.505Z,2.25
2022-08-01T12:41:47.418Z,2.15
2022-08-01T12:42:54.569Z,2.28
2022-08-01T12:43:56.259Z,2.03
2022-08-01T12:44:57.788Z,1.90
2022-08-01T12:46:01.893Z,2.20
2022-08-01T12:47:06.446Z,2.17
2022-08-01T12:48:12.634Z,2.20
2022-08-01T12:49:14.860Z,1.80
2022-08-01T12:50:24.754Z,2.20
2022-08-01T12:51:26.777Z,2.10
2022-08-01T12:52:28.330Z,2.10
2022-08-01T12:53:40.932Z,1.90
2022-08-01T12:55:18.239Z,1.95
2022-08-01T12:56:32.997Z,1.88
2022-08-01T12:57:37.314Z,1.90
2022-08-01T12:58:39.573Z,2.00
2022-08-01T12:59:41.323Z,1.75
2022-08-01T13:00:45.702Z,1.60
2022-08-01T13:01:48.131Z,1.80
2022-08-01T13:03:01.968Z,1.92
2022-08-01T13:04:07.397Z,1.63
2022-08-01T13:05:10.585Z,1.77
2022-08-01T13:06:16.926Z,1.80
2022-08-01T13:07:19.472Z,1.80
2022-08-01T13:08:34.288Z,1.80
2022-08-01T13:09:35.880Z,1.83
2022-08-01T13:10:37.720Z,1.80
2022-08-01T13:11:41.838Z,2.00
2022-08-01T13:13:00.556Z,1.55
2022-08-01T13:14:02.336Z,1.77
2022-08-01T13:15:35.454Z,1.60
2022-08-01T13:17:03.373Z,1.67
2022-08-01T13:18:27.034Z,1.60
2022-08-01T13:19:45.308Z,1.70
2022-08-01T13:20:50.553Z,1.70
2022-08-01T13:21:58.798Z,1.70
2022-08-01T13:23:15.286Z,1.70
2022-08-01T13:24:25.443Z,1.90
2022-08-01T13:25:29.136Z,1.90
2022-08-01T13:26:50.293Z,1.95
2022-08-01T13:28:18.395Z,1.83
2022-08-01T13:29:23.992Z,1.85
2022-08-01T13:30:25.500Z,1.70
2022-08-01T13:31:34.552Z,1.60
2022-08-01T13:32:36.472Z,1.60
2022-08-01T13:33:46.112Z,1.80
2022-08-01T13:35:05.770Z,1.88
2022-08-01T13:36:07.906Z,1.40
2022-08-01T13:37:09.843Z,1.40
2022-08-01T13:38:11.295Z,1.73
2022-08-01T13:39:31.250Z,1.40
2022-08-01T13:40:32.857Z,1.42
2022-08-01T13:41:35.388Z,1.50
2022-08-01T13:42:37.527Z,1.40
2022-08-01T13:43:59.005Z,1.50
2022-08-01T13:45:00.586Z,1.40
2022-08-01T13:46:05.570Z,1.50
2022-08-01T13:47:14.768Z,1.33
2022-08-01T13:48:18.980Z,1.42
2022-08-01T13:49:20.716Z,1.50
2022-08-01T13:50:24.390Z,1.30
2022-08-01T13:51:25.854Z,1.40
2022-08-01T13:52:27.688Z,1.60
2022-08-01T13:53:29.715Z,1.38
2022-08-01T13:54:32.586Z,1.42
2022-08-01T13:55:35.257Z,1.60
2022-08-01T13:56:37.185Z,1.33
2022-08-01T13:57:39.180Z,1.40
2022-08-01T13:58:40.644Z,1.50
2022-08-01T13:59:42.103Z,1.30
2022-08-01T14:00:43.845Z,1.63
2022-08-01T14:01:45.805Z,1.35
2022-08-01T14:02:47.723Z,1.30
2022-08-01T14:03:49.731Z,1.20
2022-08-01T14:04:51.175Z,1.40
2022-08-01T14:05:58.838Z,1.40
2022-08-01T14:07:05.489Z,1.25
2022-08-01T14:08:11.283Z,1.20
2022-08-01T14:09:17.436Z,1.20
2022-08-01T14:10:20.639Z,1.30
2022-08-01T14:11:22.370Z,1.30
2022-08-01T14:12:24.733Z,1.30
2022-08-01T14:13:36.623Z,1.27
2022-08-01T14:14:39.324Z,1.17
2022-08-01T14:15:40.925Z,1.60
2022-08-01T14:16:48.018Z,1.13
2022-08-01T14:17:49.564Z,1.38
2022-08-01T14:18:51.380Z,1.27
2022-08-01T14:19:52.854Z,1.20
2022-08-01T14:20:54.902Z,1.17
2022-08-01T14:22:00.100Z,1.13
2022-08-01T14:23:01.886Z,1.35
2022-08-01T14:24:03.493Z,1.40
2022-08-01T14:25:05.436Z,1.30
2022-08-01T14:26:12.131Z,1.20
2022-08-01T14:27:14.273Z,1.30
2022-08-01T14:28:16.204Z,1.35
2022-08-01T14:29:17.703Z,1.30
2022-08-01T14:30:19.241Z,1.20
2022-08-01T14:31:20.719Z,1.23
2022-08-01T14:32:28.419Z,1.30
2022-08-01T14:33:31.823Z,1.60
2022-08-01T14:34:35.848Z,1.40
2022-08-01T14:36:05.392Z,1.30
2022-08-01T14:36:59.230Z,1.10
2022-08-01T14:38:00.731Z,1.10
2022-08-01T14:39:02.344Z,1.40
2022-08-01T14:40:07.318Z,1.33
2022-08-01T14:41:09.476Z,1.10
2022-08-01T14:42:11.347Z,1.20
2022-08-01T14:43:23.059Z,1.10
2022-08-01T14:44:28.163Z,1.30
2022-08-01T14:45:34.751Z,1.20
2022-08-01T14:46:36.353Z,1.30